Capitol Logistics 2185

Operating for AJT



KPHL
Philadelphia International Airport
Philadelphia, Pennsylvania
KSMF
Sacramento International Airport
Sacramento, California

Activity Log

Date Flight Route Aircraft Duration
No Flights Yet

Route Details

Aircraft Information
Group: Boeing Common
Types: B752,B762,B763
Route Data
Demand: M
Distance: 2133nm
Duration: 5h 12m
Recm'd Route: MXE PENSY J110 FLIRT BRNAN Q42 IRK J151 OVR J151 ONL J94 BFF J94 LLC
Origin Wx: KPHL 270454Z 00000KT 4SM BR OVC003 19/18 A3006 RMK AO2 SLP179 T01940183 402330122
Dest. Wx: KSMF 270453Z 14011KT 10SM FEW190 17/11 A2986 RMK AO2 SLP109 T01670111
Notes:

Financial History
Total Freight: 0lbs
Average Load: 0lbs/flt
Fuel Used: 0lbs
Avg. Fuel Used: 0lbs/flt
Fuel Expense: $0
Avg. Fuel Expense: $0
Avg. Fuel Cost: $0/lbs
Total Gross Income: $0
Pilot Pay: $0
Total Expenses: $0
Total Revenue: $0
Average Revenue: $0